createdAt,value
2023-05-06T00:01:48.887Z,100956.73
2023-05-06T00:04:19.597Z,100954.91
2023-05-06T00:06:50.243Z,100950.43
2023-05-06T00:09:21.285Z,100954.31
2023-05-06T00:11:51.867Z,100955.63
2023-05-06T00:14:22.539Z,100958.52
2023-05-06T00:16:53.050Z,100961.77
2023-05-06T00:19:23.577Z,100968.09
2023-05-06T00:21:55.993Z,100971.02
2023-05-06T00:24:26.518Z,100974.20
2023-05-06T00:26:58.582Z,100981.08
2023-05-06T00:29:29.117Z,100982.08
2023-05-06T00:31:59.810Z,100975.95
2023-05-06T00:34:30.431Z,100977.59
2023-05-06T00:37:00.972Z,100979.27
2023-05-06T00:39:32.151Z,100984.02
2023-05-06T00:42:03.625Z,100984.97
2023-05-06T00:44:34.244Z,100982.27
2023-05-06T00:47:05.724Z,100985.10
2023-05-06T00:49:36.300Z,100988.23
2023-05-06T00:52:07.034Z,100983.10
2023-05-06T00:54:37.787Z,100986.34
2023-05-06T00:57:08.445Z,100983.44
2023-05-06T00:59:39.815Z,100981.74
2023-05-06T01:02:10.500Z,100977.06
2023-05-06T01:04:42.147Z,100977.27
2023-05-06T01:07:17.952Z,100978.20
2023-05-06T01:09:52.587Z,100976.87
2023-05-06T01:12:29.182Z,100982.66
2023-05-06T01:15:06.611Z,100981.79
2023-05-06T01:17:38.081Z,100987.14
2023-05-06T01:20:12.090Z,100988.50
2023-05-06T01:22:42.584Z,100995.23
2023-05-06T01:25:20.639Z,100996.77
2023-05-06T01:27:51.677Z,100996.50
2023-05-06T01:30:24.249Z,100997.08
2023-05-06T01:33:01.920Z,101001.27
2023-05-06T01:35:36.601Z,101003.88
2023-05-06T01:38:12.574Z,101003.02
2023-05-06T01:40:43.878Z,101000.98
2023-05-06T01:43:16.088Z,100996.67
2023-05-06T01:45:53.215Z,100993.37
2023-05-06T01:48:25.938Z,100996.33
2023-05-06T01:50:56.662Z,100994.45
2023-05-06T01:53:27.258Z,100990.64
2023-05-06T01:55:57.865Z,100984.59
2023-05-06T01:58:28.499Z,100985.38
2023-05-06T02:00:58.972Z,100987.77
2023-05-06T02:03:29.566Z,100989.70
2023-05-06T02:06:00.596Z,100989.27
2023-05-06T02:08:33.038Z,100984.61
2023-05-06T02:11:03.785Z,100985.52
2023-05-06T02:13:35.143Z,100982.14
2023-05-06T02:16:05.974Z,100978.45
2023-05-06T02:18:36.669Z,100978.27
2023-05-06T02:21:07.192Z,100982.38
2023-05-06T02:23:37.819Z,100980.26
2023-05-06T02:26:08.456Z,100982.83
2023-05-06T02:28:39.023Z,100987.33
2023-05-06T02:31:09.614Z,100987.20
2023-05-06T02:33:40.268Z,100986.96
2023-05-06T02:36:10.864Z,100988.66
2023-05-06T02:38:41.437Z,100985.60
2023-05-06T02:41:12.045Z,100984.64
2023-05-06T02:43:42.591Z,100982.80
2023-05-06T02:46:13.788Z,100984.61
2023-05-06T02:48:44.442Z,100986.30
2023-05-06T02:51:15.126Z,100988.98
2023-05-06T02:53:45.716Z,100989.60
2023-05-06T02:56:16.392Z,100990.52
2023-05-06T02:58:47.030Z,100991.23
2023-05-06T03:01:17.593Z,100986.15
2023-05-06T03:03:48.276Z,100983.15
2023-05-06T03:06:18.889Z,100984.17
2023-05-06T03:08:50.063Z,100987.70
2023-05-06T03:11:21.283Z,100986.14
2023-05-06T03:13:51.909Z,100986.20
2023-05-06T03:16:22.687Z,100981.77
2023-05-06T03:18:54.763Z,100978.41
2023-05-06T03:21:25.454Z,100974.06
2023-05-06T03:23:56.184Z,100971.02
2023-05-06T03:26:27.637Z,100969.08
2023-05-06T03:28:58.155Z,100966.36
2023-05-06T03:31:28.973Z,100963.79
2023-05-06T03:33:59.708Z,100963.93
2023-05-06T03:36:31.756Z,100962.84
2023-05-06T03:39:02.740Z,100958.26
2023-05-06T03:41:34.751Z,100957.15
2023-05-06T03:44:06.086Z,100962.54
2023-05-06T03:46:36.773Z,100966.13
2023-05-06T03:49:07.452Z,100966.05
2023-05-06T03:51:38.543Z,100963.29
2023-05-06T03:54:09.701Z,100969.58
2023-05-06T03:56:40.341Z,100969.35
2023-05-06T03:59:11.083Z,100976.09
2023-05-06T04:01:42.174Z,100979.98
2023-05-06T04:04:13.482Z,100980.91
2023-05-06T04:06:44.316Z,100985.54
2023-05-06T04:09:14.877Z,100986.55
2023-05-06T04:11:45.715Z,100986.10
2023-05-06T04:14:17.348Z,100985.98
2023-05-06T04:16:47.878Z,100980.34
2023-05-06T04:19:18.718Z,100981.05
2023-05-06T04:21:49.963Z,100977.14
2023-05-06T04:24:21.604Z,100977.99
2023-05-06T04:26:52.155Z,100975.17
2023-05-06T04:29:23.248Z,100976.61
2023-05-06T04:32:01.411Z,100977.06
2023-05-06T04:34:33.104Z,100976.53
2023-05-06T04:37:05.740Z,100975.48
2023-05-06T04:39:47.570Z,100976.52
2023-05-06T04:42:18.234Z,100974.78
2023-05-06T04:44:54.530Z,100974.21
2023-05-06T04:47:28.159Z,100966.37
2023-05-06T04:49:58.936Z,100972.83
2023-05-06T04:52:30.775Z,100972.84
2023-05-06T04:55:01.308Z,100973.11
2023-05-06T04:57:33.722Z,100973.71
2023-05-06T05:00:07.155Z,100968.63
2023-05-06T05:02:38.958Z,100970.38
2023-05-06T05:05:10.751Z,100970.41
2023-05-06T05:07:42.785Z,100965.84
2023-05-06T05:10:13.429Z,100968.30
2023-05-06T05:12:44.011Z,100964.70
2023-05-06T05:15:15.223Z,100965.54
2023-05-06T05:17:45.885Z,100964.40
2023-05-06T05:20:17.683Z,100965.22
2023-05-06T05:22:48.121Z,100960.08
2023-05-06T05:25:18.828Z,100959.21
2023-05-06T05:27:49.736Z,100958.96
2023-05-06T05:30:21.838Z,100953.48
2023-05-06T05:32:53.098Z,100954.48
2023-05-06T05:35:23.796Z,100948.33
2023-05-06T05:37:55.033Z,100949.88
2023-05-06T05:40:26.417Z,100948.66
2023-05-06T05:42:57.251Z,100945.62
2023-05-06T05:45:33.421Z,100944.98
2023-05-06T05:48:04.201Z,100940.45
2023-05-06T05:50:34.812Z,100946.02
2023-05-06T05:53:05.680Z,100945.73
2023-05-06T05:55:39.766Z,100942.52
2023-05-06T05:58:10.809Z,100935.96
2023-05-06T06:00:41.871Z,100935.42
2023-05-06T06:03:14.262Z,100937.09
2023-05-06T06:05:44.949Z,100934.70
2023-05-06T06:08:18.496Z,100936.94
2023-05-06T06:10:49.639Z,100935.97
2023-05-06T06:13:24.208Z,100938.74
2023-05-06T06:15:57.063Z,100937.06
2023-05-06T06:18:27.770Z,100932.48
2023-05-06T06:20:58.390Z,100928.78
2023-05-06T06:23:28.986Z,100926.37
2023-05-06T06:25:59.733Z,100927.71
2023-05-06T06:28:30.261Z,100923.16
2023-05-06T06:31:02.117Z,100926.25
2023-05-06T06:33:32.709Z,100922.41
2023-05-06T06:36:03.361Z,100923.38
2023-05-06T06:38:34.095Z,100928.29
2023-05-06T06:41:05.153Z,100926.35
2023-05-06T06:43:36.000Z,100922.44
2023-05-06T06:46:19.322Z,100920.56
2023-05-06T06:48:49.888Z,100919.05
2023-05-06T06:51:20.458Z,100920.02
2023-05-06T06:53:51.031Z,100920.48
2023-05-06T06:56:22.255Z,100919.59
2023-05-06T06:58:53.395Z,100917.88
2023-05-06T07:01:24.251Z,100910.09
2023-05-06T07:03:54.888Z,100909.63
2023-05-06T07:06:25.595Z,100910.86
2023-05-06T07:08:56.505Z,100909.84
2023-05-06T07:11:27.092Z,100912.98
2023-05-06T07:13:57.930Z,100906.67
2023-05-06T07:16:28.661Z,100910.27
2023-05-06T07:18:59.336Z,100913.48
2023-05-06T07:21:32.337Z,100907.81
2023-05-06T07:24:02.935Z,100909.55
2023-05-06T07:26:36.307Z,100908.52
2023-05-06T07:29:06.883Z,100906.71
2023-05-06T07:31:37.466Z,100906.23
2023-05-06T07:34:08.708Z,100895.81
2023-05-06T07:36:43.281Z,100896.36
2023-05-06T07:39:15.200Z,100898.52
2023-05-06T07:41:47.036Z,100897.55
2023-05-06T07:44:17.652Z,100899.82
2023-05-06T07:46:48.365Z,100892.80
2023-05-06T07:49:18.960Z,100891.23
2023-05-06T07:51:49.469Z,100889.84
2023-05-06T07:54:20.008Z,100887.73
2023-05-06T07:56:50.521Z,100887.69
2023-05-06T07:59:21.036Z,100887.59
2023-05-06T08:01:51.600Z,100887.30
2023-05-06T08:04:22.235Z,100896.90
2023-05-06T08:06:53.805Z,100894.90
2023-05-06T08:09:24.352Z,100893.80
2023-05-06T08:11:54.927Z,100893.08
2023-05-06T08:14:26.165Z,100889.14
2023-05-06T08:16:56.747Z,100886.90
2023-05-06T08:19:27.662Z,100882.90
2023-05-06T08:21:58.748Z,100876.27
2023-05-06T08:24:29.381Z,100876.58
2023-05-06T08:26:59.916Z,100873.65
2023-05-06T08:29:30.510Z,100874.56
2023-05-06T08:32:01.696Z,100876.73
2023-05-06T08:34:32.364Z,100873.98
2023-05-06T08:37:03.001Z,100867.30
2023-05-06T08:39:34.128Z,100868.48
2023-05-06T08:42:05.452Z,100862.50
2023-05-06T08:44:36.043Z,100858.84
2023-05-06T08:47:06.681Z,100852.94
2023-05-06T08:49:37.344Z,100851.09
2023-05-06T08:52:08.083Z,100854.92
2023-05-06T08:54:39.326Z,100851.44
2023-05-06T08:57:12.755Z,100853.73
2023-05-06T08:59:43.703Z,100854.04
2023-05-06T09:02:14.330Z,100847.40
2023-05-06T09:04:45.830Z,100844.44
2023-05-06T09:07:16.378Z,100845.92
2023-05-06T09:09:46.980Z,100842.21
2023-05-06T09:12:17.527Z,100847.84
2023-05-06T09:14:51.023Z,100847.10
2023-05-06T09:17:24.484Z,100846.44
2023-05-06T09:19:57.136Z,100843.23
2023-05-06T09:22:29.158Z,100838.85
2023-05-06T09:24:59.931Z,100838.02
2023-05-06T09:27:31.312Z,100845.80
2023-05-06T09:30:03.444Z,100842.72
2023-05-06T09:32:35.627Z,100840.29
2023-05-06T09:35:08.702Z,100838.84
2023-05-06T09:37:39.736Z,100836.55
2023-05-06T09:40:11.956Z,100834.10
2023-05-06T09:42:44.718Z,100833.44
2023-05-06T09:45:17.122Z,100830.76
2023-05-06T09:47:49.707Z,100832.52
2023-05-06T09:50:21.885Z,100830.25
2023-05-06T09:52:52.487Z,100831.05
2023-05-06T09:55:26.835Z,100831.85
2023-05-06T09:57:57.776Z,100832.63
2023-05-06T10:00:30.088Z,100826.45
2023-05-06T10:03:02.104Z,100826.70
2023-05-06T10:05:33.631Z,100837.64
2023-05-06T10:08:05.060Z,100839.25
2023-05-06T10:10:36.149Z,100832.70
2023-05-06T10:13:06.843Z,100839.88
2023-05-06T10:15:39.146Z,100837.98
2023-05-06T10:18:10.490Z,100836.49
2023-05-06T10:20:42.478Z,100837.83
2023-05-06T10:23:14.924Z,100838.73
2023-05-06T10:25:46.952Z,100841.51
2023-05-06T10:28:26.560Z,100838.52
2023-05-06T10:31:01.024Z,100835.65
2023-05-06T10:33:32.139Z,100830.73
2023-05-06T10:36:10.100Z,100834.06
2023-05-06T10:38:42.782Z,100832.35
2023-05-06T10:41:13.752Z,100828.14
2023-05-06T10:43:45.495Z,100830.92
2023-05-06T10:46:16.662Z,100829.91
2023-05-06T10:49:00.752Z,100828.44
2023-05-06T10:51:31.676Z,100825.54
2023-05-06T10:54:06.913Z,100823.51
2023-05-06T10:56:38.125Z,100821.73
2023-05-06T10:59:09.526Z,100815.23
2023-05-06T11:01:41.211Z,100818.11
2023-05-06T11:04:12.634Z,100812.02
2023-05-06T11:06:44.705Z,100811.85
2023-05-06T11:09:19.240Z,100810.82
2023-05-06T11:11:51.265Z,100815.61
2023-05-06T11:14:28.952Z,100813.85
2023-05-06T11:17:00.069Z,100817.33
2023-05-06T11:19:31.484Z,100815.23
2023-05-06T11:22:02.745Z,100816.95
2023-05-06T11:24:39.356Z,100821.52
2023-05-06T11:27:10.576Z,100815.91
2023-05-06T11:29:44.246Z,100815.58
2023-05-06T11:32:21.824Z,100815.88
2023-05-06T11:34:55.724Z,100821.35
2023-05-06T11:37:30.142Z,100817.77
2023-05-06T11:40:00.686Z,100815.31
2023-05-06T11:42:31.275Z,100815.15
2023-05-06T11:45:03.333Z,100818.76
2023-05-06T11:47:33.912Z,100815.36
2023-05-06T11:50:07.734Z,100816.64
2023-05-06T11:52:38.393Z,100817.31
2023-05-06T11:55:11.189Z,100818.02
2023-05-06T11:57:47.071Z,100819.85
2023-05-06T12:00:18.894Z,100819.73
2023-05-06T12:02:49.588Z,100824.38
2023-05-06T12:05:23.545Z,100822.31
2023-05-06T12:07:54.249Z,100821.17
2023-05-06T12:10:24.794Z,100822.66
2023-05-06T12:12:55.642Z,100821.27
2023-05-06T12:15:26.676Z,100821.09
2023-05-06T12:17:57.867Z,100821.20
2023-05-06T12:20:28.699Z,100826.09
2023-05-06T12:23:09.089Z,100826.08
2023-05-06T12:25:40.185Z,100832.38
2023-05-06T12:28:17.067Z,100836.98
2023-05-06T12:30:47.880Z,100830.76
2023-05-06T12:33:18.454Z,100825.52
2023-05-06T12:35:49.121Z,100825.41
2023-05-06T12:38:19.630Z,100821.18
2023-05-06T12:40:55.781Z,100817.55
2023-05-06T12:43:31.482Z,100816.35
2023-05-06T12:46:06.427Z,100815.07
2023-05-06T12:48:37.156Z,100811.81
2023-05-06T12:51:21.147Z,100811.13
2023-05-06T12:53:51.782Z,100808.58
2023-05-06T12:56:22.690Z,100807.39
2023-05-06T12:59:00.427Z,100809.39
2023-05-06T13:01:31.668Z,100804.13
2023-05-06T13:04:02.498Z,100804.63
2023-05-06T13:06:32.955Z,100800.92
2023-05-06T13:09:04.760Z,100801.66
2023-05-06T13:11:35.278Z,100798.92
2023-05-06T13:14:05.842Z,100797.07
2023-05-06T13:16:36.555Z,100799.58
2023-05-06T13:19:08.215Z,100795.75
2023-05-06T13:21:42.584Z,100794.81
2023-05-06T13:24:13.158Z,100792.11
2023-05-06T13:26:43.748Z,100798.15
2023-05-06T13:29:14.226Z,100800.75
2023-05-06T13:31:44.769Z,100803.98
2023-05-06T13:34:15.321Z,100801.77
2023-05-06T13:36:46.899Z,100801.53
2023-05-06T13:39:17.751Z,100800.08
2023-05-06T13:41:50.225Z,100802.73
2023-05-06T13:44:21.557Z,100797.21
2023-05-06T13:46:52.738Z,100792.52
2023-05-06T13:49:23.402Z,100789.36
2023-05-06T13:51:54.497Z,100786.42
2023-05-06T13:54:25.184Z,100779.51
2023-05-06T13:56:55.708Z,100778.73
2023-05-06T13:59:26.393Z,100779.13
2023-05-06T14:01:57.469Z,100775.02
2023-05-06T14:04:28.002Z,100773.61
2023-05-06T14:06:59.326Z,100775.83
2023-05-06T14:09:29.910Z,100775.06
2023-05-06T14:12:00.694Z,100779.61
2023-05-06T14:14:31.280Z,100775.33
2023-05-06T14:17:01.869Z,100778.67
2023-05-06T14:19:32.570Z,100773.72
2023-05-06T14:22:03.080Z,100775.34
2023-05-06T14:24:33.628Z,100774.70
2023-05-06T14:27:04.267Z,100774.13
2023-05-06T14:29:34.944Z,100775.84
2023-05-06T14:32:05.762Z,100775.84
2023-05-06T14:34:37.220Z,100775.95
2023-05-06T14:37:08.041Z,100773.83
2023-05-06T14:39:38.650Z,100777.73
2023-05-06T14:42:09.190Z,100775.10
2023-05-06T14:44:39.674Z,100771.33
2023-05-06T14:47:10.248Z,100770.48
2023-05-06T14:49:41.031Z,100773.92
2023-05-06T14:52:11.666Z,100776.02
2023-05-06T14:54:42.768Z,100770.95
2023-05-06T14:57:13.460Z,100773.25
2023-05-06T14:59:43.889Z,100776.32
2023-05-06T15:02:14.401Z,100773.92
2023-05-06T15:04:46.052Z,100775.44
2023-05-06T15:07:16.633Z,100777.94
2023-05-06T15:09:47.295Z,100779.92
2023-05-06T15:12:17.929Z,100781.54
2023-05-06T15:14:48.624Z,100784.75
2023-05-06T15:17:19.130Z,100784.84
2023-05-06T15:19:49.711Z,100783.53
2023-05-06T15:22:20.175Z,100782.08
2023-05-06T15:24:50.591Z,100779.48
2023-05-06T15:27:21.164Z,100778.54
2023-05-06T15:29:51.786Z,100782.39
2023-05-06T15:32:22.357Z,100777.77
2023-05-06T15:34:52.805Z,100777.16
2023-05-06T15:37:23.981Z,100777.23
2023-05-06T15:39:54.523Z,100776.69
2023-05-06T15:42:25.044Z,100776.69
2023-05-06T15:44:55.554Z,100777.77
2023-05-06T15:47:26.148Z,100776.73
2023-05-06T15:49:56.787Z,100777.02
2023-05-06T15:52:27.318Z,100777.06
2023-05-06T15:54:59.417Z,100778.88
2023-05-06T15:57:31.221Z,100773.92
2023-05-06T16:00:01.856Z,100772.38
2023-05-06T16:02:35.416Z,100776.89
2023-05-06T16:05:06.257Z,100776.72
2023-05-06T16:07:36.813Z,100776.59
2023-05-06T16:10:08.844Z,100773.30
2023-05-06T16:12:39.599Z,100770.80
2023-05-06T16:15:11.121Z,100769.75
2023-05-06T16:17:41.926Z,100771.94
2023-05-06T16:20:13.447Z,100769.57
2023-05-06T16:22:50.401Z,100770.95
2023-05-06T16:25:20.948Z,100770.65
2023-05-06T16:27:51.453Z,100767.15
2023-05-06T16:30:22.017Z,100766.61
2023-05-06T16:32:52.727Z,100768.56
2023-05-06T16:35:23.270Z,100769.70
2023-05-06T16:37:53.903Z,100769.50
2023-05-06T16:40:24.428Z,100768.80
2023-05-06T16:42:55.271Z,100769.52
2023-05-06T16:45:25.821Z,100768.94
2023-05-06T16:47:56.405Z,100771.96
2023-05-06T16:50:27.037Z,100767.73
2023-05-06T16:52:57.738Z,100766.20
2023-05-06T16:55:28.235Z,100769.51
2023-05-06T16:58:00.914Z,100768.73
2023-05-06T17:00:31.925Z,100764.58
2023-05-06T17:03:02.684Z,100765.55
2023-05-06T17:05:33.236Z,100764.39
2023-05-06T17:08:04.582Z,100766.58
2023-05-06T17:10:35.101Z,100767.65
2023-05-06T17:13:06.101Z,100768.87
2023-05-06T17:15:37.606Z,100768.53
2023-05-06T17:18:08.226Z,100767.59
2023-05-06T17:20:51.468Z,100768.86
2023-05-06T17:23:26.324Z,100766.34
2023-05-06T17:25:58.239Z,100764.48
2023-05-06T17:28:28.886Z,100761.31
2023-05-06T17:30:59.393Z,100768.70
2023-05-06T17:33:29.931Z,100769.95
2023-05-06T17:36:00.488Z,100773.15
2023-05-06T17:38:31.046Z,100772.44
2023-05-06T17:41:01.578Z,100769.91
2023-05-06T17:43:33.697Z,100769.40
2023-05-06T17:46:04.265Z,100769.74
2023-05-06T17:48:35.501Z,100765.73
2023-05-06T17:51:06.094Z,100769.60
2023-05-06T17:53:37.662Z,100769.44
2023-05-06T17:56:08.445Z,100770.59
2023-05-06T17:58:38.951Z,100767.92
2023-05-06T18:01:09.618Z,100773.95
2023-05-06T18:03:41.346Z,100772.73
2023-05-06T18:06:12.199Z,100775.45
2023-05-06T18:08:42.699Z,100778.27
2023-05-06T18:11:13.230Z,100780.36
2023-05-06T18:13:43.728Z,100781.03
2023-05-06T18:16:14.464Z,100783.52
2023-05-06T18:18:45.135Z,100781.30
2023-05-06T18:21:15.631Z,100785.65
2023-05-06T18:23:46.238Z,100786.09
2023-05-06T18:26:27.239Z,100787.06
2023-05-06T18:29:07.287Z,100788.59
2023-05-06T18:31:37.818Z,100790.06
2023-05-06T18:34:08.374Z,100789.99
2023-05-06T18:36:38.926Z,100792.62
2023-05-06T18:39:09.459Z,100794.71
2023-05-06T18:41:40.057Z,100793.19
2023-05-06T18:44:10.949Z,100794.52
2023-05-06T18:46:41.485Z,100797.02
2023-05-06T18:49:14.192Z,100796.35
2023-05-06T18:51:44.918Z,100795.10
2023-05-06T18:54:16.337Z,100790.20
2023-05-06T18:56:47.370Z,100790.27
2023-05-06T18:59:18.584Z,100791.35
2023-05-06T19:01:49.063Z,100789.49
2023-05-06T19:04:19.557Z,100793.43
2023-05-06T19:06:51.672Z,100794.73
2023-05-06T19:09:22.266Z,100798.20
2023-05-06T19:11:52.721Z,100799.88
2023-05-06T19:14:25.480Z,100800.55
2023-05-06T19:16:56.228Z,100805.03
2023-05-06T19:19:26.792Z,100807.28
2023-05-06T19:21:57.576Z,100810.98
2023-05-06T19:24:28.212Z,100809.52
2023-05-06T19:26:58.683Z,100808.92
2023-05-06T19:29:29.245Z,100815.40
2023-05-06T19:32:00.378Z,100817.36
2023-05-06T19:34:31.053Z,100821.71
2023-05-06T19:37:01.550Z,100820.92
2023-05-06T19:39:32.253Z,100825.08
2023-05-06T19:42:02.919Z,100818.83
2023-05-06T19:44:33.472Z,100825.32
2023-05-06T19:47:03.944Z,100817.02
2023-05-06T19:49:34.465Z,100821.26
2023-05-06T19:52:05.251Z,100819.64
2023-05-06T19:54:35.792Z,100814.91
2023-05-06T19:57:06.427Z,100814.66
2023-05-06T19:59:36.921Z,100818.83
2023-05-06T20:02:09.822Z,100819.03
2023-05-06T20:04:40.667Z,100813.11
2023-05-06T20:07:12.501Z,100816.64
2023-05-06T20:09:42.989Z,100817.88
2023-05-06T20:12:13.439Z,100812.69
2023-05-06T20:14:43.995Z,100810.65
2023-05-06T20:17:14.492Z,100810.38
2023-05-06T20:19:45.134Z,100810.57
2023-05-06T20:22:16.904Z,100811.11
2023-05-06T20:24:47.791Z,100813.52
2023-05-06T20:27:18.308Z,100810.33
2023-05-06T20:29:51.725Z,100814.06
2023-05-06T20:32:22.298Z,100817.77
2023-05-06T20:34:53.348Z,100814.74
2023-05-06T20:37:24.513Z,100818.53
2023-05-06T20:39:55.221Z,100817.73
2023-05-06T20:42:25.747Z,100814.76
2023-05-06T20:44:56.308Z,100815.75
2023-05-06T20:47:27.275Z,100816.95
2023-05-06T20:49:58.376Z,100819.64
2023-05-06T20:52:28.901Z,100823.02
2023-05-06T20:55:00.373Z,100824.31
2023-05-06T20:57:30.996Z,100825.80
2023-05-06T21:00:01.572Z,100826.87
2023-05-06T21:02:34.322Z,100826.41
2023-05-06T21:05:08.920Z,100820.35
2023-05-06T21:07:39.825Z,100820.76
2023-05-06T21:10:11.857Z,100822.25
2023-05-06T21:12:47.524Z,100825.59
2023-05-06T21:15:18.099Z,100826.46
2023-05-06T21:17:49.248Z,100826.50
2023-05-06T21:20:20.309Z,100827.98
2023-05-06T21:22:50.926Z,100826.55
2023-05-06T21:25:21.925Z,100830.33
2023-05-06T21:27:53.272Z,100831.75
2023-05-06T21:30:23.813Z,100828.14
2023-05-06T21:32:54.435Z,100827.20
2023-05-06T21:35:25.611Z,100828.87
2023-05-06T21:37:56.056Z,100829.29
2023-05-06T21:40:26.651Z,100824.69
2023-05-06T21:42:57.202Z,100825.99
2023-05-06T21:45:28.341Z,100826.92
2023-05-06T21:47:58.918Z,100823.99
2023-05-06T21:50:31.730Z,100824.73
2023-05-06T21:53:03.713Z,100821.52
2023-05-06T21:55:34.386Z,100821.94
2023-05-06T21:58:04.966Z,100828.14
2023-05-06T22:00:35.512Z,100828.96
2023-05-06T22:03:06.787Z,100832.73
2023-05-06T22:05:37.418Z,100837.39
2023-05-06T22:08:07.899Z,100845.29
2023-05-06T22:10:40.531Z,100852.52
2023-05-06T22:13:11.144Z,100855.60
2023-05-06T22:15:42.056Z,100856.28
2023-05-06T22:18:14.311Z,100861.97
2023-05-06T22:20:44.983Z,100866.77
2023-05-06T22:23:16.512Z,100866.83
2023-05-06T22:25:47.346Z,100864.74
2023-05-06T22:28:18.012Z,100866.39
2023-05-06T22:30:49.146Z,100865.93
2023-05-06T22:33:19.652Z,100867.93
2023-05-06T22:35:50.125Z,100870.94
2023-05-06T22:38:20.754Z,100870.45
2023-05-06T22:40:51.540Z,100872.77
2023-05-06T22:43:22.023Z,100873.95
2023-05-06T22:45:52.900Z,100878.30
2023-05-06T22:48:23.884Z,100876.29
2023-05-06T22:50:55.210Z,100873.80
2023-05-06T22:53:26.117Z,100874.71
2023-05-06T22:55:57.086Z,100877.14
2023-05-06T22:58:27.669Z,100873.90
2023-05-06T23:00:58.212Z,100877.08
2023-05-06T23:03:29.435Z,100879.23
2023-05-06T23:06:00.070Z,100882.17
2023-05-06T23:08:30.762Z,100881.24
2023-05-06T23:11:02.015Z,100884.09
2023-05-06T23:13:36.118Z,100885.63
2023-05-06T23:16:07.878Z,100880.84
2023-05-06T23:18:38.474Z,100879.48
2023-05-06T23:21:09.487Z,100882.95
2023-05-06T23:23:40.125Z,100883.02
2023-05-06T23:26:10.641Z,100887.95
2023-05-06T23:28:41.960Z,100889.77
2023-05-06T23:31:12.541Z,100890.33
2023-05-06T23:33:43.120Z,100894.05
2023-05-06T23:36:13.674Z,100894.33
2023-05-06T23:38:44.756Z,100896.73
2023-05-06T23:41:15.278Z,100893.25
2023-05-06T23:43:46.020Z,100897.41
2023-05-06T23:46:17.068Z,100899.98
2023-05-06T23:48:47.916Z,100900.46
2023-05-06T23:51:18.418Z,100897.88
2023-05-06T23:53:49.046Z,100899.08
2023-05-06T23:56:20.694Z,100901.48
2023-05-06T23:58:51.282Z,100901.98
